Time;durP1;ratioP1;P1;durP2;ratioP2;P2;SDS_P1;SDS_P2;PMS_P1;PMS_P2;Temp;Humidity;BMP_temperature;BMP_pressure;BME280_temperature;BME280_humidity;BME280_pressure;Samples;Min_cycle;Max_cycle;Signal;HPM_P1;HPM_P2
2024/01/24 00:01:13;;;;;;;1.02;1.02;;;;;;;-4.99;100.00;99353.47;4895550;29;20060;-85
2024/01/24 00:03:40;;;;;;;0.90;0.90;;;;;;;-4.96;100.00;99353.22;4895350;29;20547;-86
2024/01/24 00:06:07;;;;;;;0.80;0.80;;;;;;;-4.93;100.00;99355.59;4863542;29;20063;-87
2024/01/24 00:08:35;;;;;;;0.82;0.82;;;;;;;-4.93;100.00;99363.47;4895261;29;20147;-86
2024/01/24 00:11:02;;;;;;;0.77;0.77;;;;;;;-4.96;100.00;99355.00;4895632;29;20049;-86
2024/01/24 00:13:30;;;;;;;0.73;0.73;;;;;;;-4.92;100.00;99359.03;4879024;29;20468;-88
2024/01/24 00:15:57;;;;;;;0.90;0.90;;;;;;;-4.92;100.00;99357.22;4878472;29;20155;-88
2024/01/24 00:18:25;;;;;;;0.80;0.80;;;;;;;-4.91;100.00;99358.91;4895440;29;20562;-90
2024/01/24 00:20:54;;;;;;;0.70;0.70;;;;;;;-4.89;100.00;99350.88;4895346;29;20123;-88
2024/01/24 00:23:23;;;;;;;1.00;1.00;;;;;;;-4.91;100.00;99347.53;4895189;29;20056;-88
2024/01/24 00:25:50;;;;;;;0.90;0.90;;;;;;;-4.92;100.00;99351.16;4895155;29;20052;-88
2024/01/24 00:28:18;;;;;;;0.85;0.85;;;;;;;-4.94;100.00;99348.63;4878492;29;20060;-90
2024/01/24 00:30:46;;;;;;;0.90;0.90;;;;;;;-4.92;100.00;99346.69;4895313;29;20427;-89
2024/01/24 00:33:15;;;;;;;1.40;1.30;;;;;;;-4.89;100.00;99341.16;4895462;29;20104;-87
2024/01/24 00:35:43;;;;;;;0.82;0.82;;;;;;;-4.88;100.00;99337.56;4895259;29;20087;-89
2024/01/24 00:38:10;;;;;;;0.90;0.90;;;;;;;-4.84;100.00;99338.94;4876674;29;20436;-87
2024/01/24 00:40:37;;;;;;;1.10;1.10;;;;;;;-4.84;100.00;99324.94;4895122;29;20057;-85
2024/01/24 00:43:05;;;;;;;0.73;0.73;;;;;;;-4.84;100.00;99315.25;4895329;29;20052;-85
2024/01/24 00:45:32;;;;;;;0.85;0.85;;;;;;;-4.86;100.00;99311.09;4895138;29;20083;-88
2024/01/24 00:48:03;;;;;;;0.90;0.90;;;;;;;-4.93;100.00;99305.56;4895179;29;20057;-88
2024/01/24 00:50:30;;;;;;;1.00;1.00;;;;;;;-4.93;100.00;99300.31;4895224;29;20056;-89
2024/01/24 00:53:01;;;;;;;0.90;0.90;;;;;;;-4.90;100.00;99292.13;4894928;29;20056;-87
2024/01/24 00:55:30;;;;;;;1.00;1.00;;;;;;;-4.89;100.00;99296.41;4881982;29;20139;-87
2024/01/24 00:57:58;;;;;;;0.60;0.60;;;;;;;-4.94;100.00;99285.47;4898237;29;20053;-87
2024/01/24 01:00:25;;;;;;;1.30;1.20;;;;;;;-4.89;100.00;99295.56;4881442;29;20060;-88
2024/01/24 01:02:52;;;;;;;0.75;0.75;;;;;;;-4.86;100.00;99285.63;4882012;29;20052;-87
2024/01/24 01:05:20;;;;;;;1.08;1.08;;;;;;;-4.84;100.00;99288.91;4898078;29;20060;-86
2024/01/24 01:07:48;;;;;;;0.70;0.70;;;;;;;-4.84;100.00;99283.66;4898123;29;20052;-87
2024/01/24 01:10:15;;;;;;;1.02;1.02;;;;;;;-4.84;100.00;99291.56;4898537;29;20068;-89
2024/01/24 01:12:42;;;;;;;1.00;1.00;;;;;;;-4.81;100.00;99275.50;4898195;29;20523;-86
2024/01/24 01:15:10;;;;;;;0.70;0.70;;;;;;;-4.81;100.00;99270.22;4898562;29;20061;-86
2024/01/24 01:17:37;;;;;;;0.88;0.88;;;;;;;-4.83;100.00;99272.16;4898343;29;20067;-86
2024/01/24 01:20:05;;;;;;;1.10;1.10;;;;;;;-4.88;100.00;99260.41;4897865;29;20523;-86
2024/01/24 01:22:32;;;;;;;0.77;0.77;;;;;;;-4.86;100.00;99266.34;4898380;29;20056;-88
2024/01/24 01:25:00;;;;;;;0.85;0.85;;;;;;;-4.85;100.00;99260.13;4898285;29;20412;-88
2024/01/24 01:27:31;;;;;;;0.82;0.82;;;;;;;-4.84;100.00;99257.31;4896679;29;20060;-87
2024/01/24 01:29:58;;;;;;;1.10;1.10;;;;;;;-4.84;100.00;99259.94;4897786;29;20503;-88
2024/01/24 01:32:25;;;;;;;0.88;0.88;;;;;;;-4.84;100.00;99251.22;4881294;29;20135;-88
2024/01/24 01:34:54;;;;;;;1.20;1.20;;;;;;;-4.86;100.00;99267.19;4897394;29;20163;-88
2024/01/24 01:37:23;;;;;;;0.90;0.90;;;;;;;-4.83;100.00;99256.38;4897913;29;20059;-88
2024/01/24 01:39:51;;;;;;;1.00;1.00;;;;;;;-4.77;100.00;99254.16;4896323;29;20535;-85
2024/01/24 01:42:18;;;;;;;0.85;0.85;;;;;;;-4.77;100.00;99254.97;4897477;29;20056;-86
2024/01/24 01:44:46;;;;;;;0.82;0.82;;;;;;;-4.75;100.00;99247.75;4897604;29;20062;-87
2024/01/24 01:47:15;;;;;;;0.90;0.90;;;;;;;-4.79;100.00;99241.09;4898068;29;20060;-87
2024/01/24 01:49:43;;;;;;;0.80;0.80;;;;;;;-4.75;100.00;99239.03;4880458;29;20049;-87
2024/01/24 01:52:11;;;;;;;1.08;1.08;;;;;;;-4.74;100.00;99243.31;4897761;29;20508;-88
2024/01/24 01:54:41;;;;;;;0.70;0.70;;;;;;;-4.72;100.00;99236.13;4897242;29;20056;-88
2024/01/24 01:57:10;;;;;;;0.85;0.85;;;;;;;-4.77;100.00;99214.66;4880874;29;20139;-88
2024/01/24 01:59:41;;;;;;;1.00;1.00;;;;;;;-4.68;100.00;99222.53;4897574;29;20426;-88
2024/01/24 02:02:10;;;;;;;0.70;0.70;;;;;;;-4.66;100.00;99219.75;4880878;29;20053;-88
2024/01/24 02:04:37;;;;;;;0.90;0.90;;;;;;;-4.69;100.00;99222.66;4880435;29;20056;-88
2024/01/24 02:07:06;;;;;;;0.80;0.80;;;;;;;-4.68;100.00;99230.44;4879828;29;20445;-88
2024/01/24 02:09:34;;;;;;;0.98;0.98;;;;;;;-4.68;100.00;99232.25;4880829;29;20388;-90
2024/01/24 02:12:02;;;;;;;0.80;0.80;;;;;;;-4.69;100.00;99223.50;4897441;29;20061;-89
2024/01/24 02:14:29;;;;;;;0.90;0.90;;;;;;;-4.66;100.00;99231.13;4897226;29;20067;-89
2024/01/24 02:16:57;;;;;;;0.93;0.93;;;;;;;-4.64;100.00;99218.63;4896790;29;20543;-89
2024/01/24 02:19:25;;;;;;;0.80;0.80;;;;;;;-4.65;100.00;99209.06;4897050;29;20061;-88
2024/01/24 02:21:53;;;;;;;0.80;0.80;;;;;;;-4.64;100.00;99202.00;4880274;29;20052;-88
2024/01/24 02:24:20;;;;;;;0.80;0.80;;;;;;;-4.66;100.00;99207.44;4896741;29;20064;-88
2024/01/24 02:26:48;;;;;;;0.85;0.85;;;;;;;-4.63;100.00;99207.13;4880087;29;20053;-88
2024/01/24 02:29:16;;;;;;;1.00;1.00;;;;;;;-4.62;100.00;99202.69;4896691;29;20056;-84
2024/01/24 02:31:43;;;;;;;1.00;1.00;;;;;;;-4.61;100.00;99196.44;4896708;29;20049;-83
2024/01/24 02:34:10;;;;;;;1.08;1.08;;;;;;;-4.56;100.00;99215.28;4896976;29;20221;-84
2024/01/24 02:36:38;;;;;;;0.80;0.80;;;;;;;-4.59;100.00;99212.94;4896588;29;20566;-83
2024/01/24 02:39:05;;;;;;;0.85;0.85;;;;;;;-4.63;100.00;99207.13;4896927;29;20121;-84
2024/01/24 02:41:33;;;;;;;0.77;0.77;;;;;;;-4.62;100.00;99203.50;4879969;29;20075;-83
2024/01/24 02:44:00;;;;;;;0.90;0.90;;;;;;;-4.60;100.00;99206.84;4896766;29;20558;-83
2024/01/24 02:46:30;;;;;;;0.90;0.90;;;;;;;-4.59;100.00;99197.97;4864535;29;20079;-84
2024/01/24 02:48:57;;;;;;;1.00;1.00;;;;;;;-4.58;100.00;99199.63;4896660;29;20068;-82
2024/01/24 02:51:25;;;;;;;1.05;1.05;;;;;;;-4.54;100.00;99196.72;4879622;29;20061;-83
2024/01/24 02:53:53;;;;;;;1.00;1.00;;;;;;;-4.54;100.00;99184.34;4896611;29;20096;-83
2024/01/24 02:56:20;;;;;;;1.17;1.17;;;;;;;-4.58;100.00;99183.81;4896315;29;20052;-82
2024/01/24 02:58:48;;;;;;;0.90;0.90;;;;;;;-4.57;100.00;99190.75;4896361;29;20068;-82
2024/01/24 03:01:15;;;;;;;1.00;1.00;;;;;;;-4.56;100.00;99188.94;4896255;29;20060;-84
2024/01/24 03:03:43;;;;;;;0.80;0.80;;;;;;;-4.60;100.00;99192.84;4896677;29;20056;-85
2024/01/24 03:06:11;;;;;;;0.70;0.70;;;;;;;-4.52;100.00;99198.22;4896313;29;20062;-88
2024/01/24 03:08:56;;;;;;;0.95;0.95;;;;;;;-4.50;100.00;99184.91;4896385;29;20419;-87
2024/01/24 03:11:24;;;;;;;0.90;0.90;;;;;;;-4.48;100.00;99178.53;4879120;29;20063;-84
2024/01/24 03:13:51;;;;;;;1.10;1.10;;;;;;;-4.49;100.00;99179.50;4895905;29;20056;-85
2024/01/24 03:16:19;;;;;;;0.63;0.63;;;;;;;-4.47;100.00;99171.47;4895952;29;20468;-85
2024/01/24 03:18:47;;;;;;;1.00;1.00;;;;;;;-4.44;100.00;99171.16;4879409;29;20056;-88
2024/01/24 03:21:17;;;;;;;0.90;0.90;;;;;;;-4.43;100.00;99176.28;4896238;29;20056;-87
2024/01/24 03:23:45;;;;;;;0.90;0.90;;;;;;;-4.44;100.00;99171.16;4895701;29;20533;-86
2024/01/24 03:26:15;;;;;;;1.00;1.00;;;;;;;-4.48;100.00;99175.03;4878730;29;20056;-87
2024/01/24 03:28:42;;;;;;;1.10;1.10;;;;;;;-4.42;100.00;99175.31;4863605;29;20052;-86
2024/01/24 03:31:10;;;;;;;0.90;0.90;;;;;;;-4.40;100.00;99189.19;4878814;29;20057;-87
2024/01/24 03:33:37;;;;;;;0.90;0.90;;;;;;;-4.38;100.00;99192.50;4878632;29;20052;-86
2024/01/24 03:36:05;;;;;;;1.10;1.10;;;;;;;-4.37;100.00;99183.63;4896057;29;20599;-86
2024/01/24 03:38:34;;;;;;;1.00;1.00;;;;;;;-4.37;100.00;99188.06;4863614;29;20056;-87
2024/01/24 03:41:01;;;;;;;0.70;0.70;;;;;;;-4.34;100.00;99176.41;4879211;29;20056;-86
2024/01/24 03:43:28;;;;;;;0.93;0.93;;;;;;;-4.33;100.00;99184.13;4895441;29;20063;-87
2024/01/24 03:45:56;;;;;;;0.90;0.90;;;;;;;-4.34;100.00;99176.41;4895281;29;20064;-88
2024/01/24 03:48:23;;;;;;;0.95;0.95;;;;;;;-4.34;100.00;99182.50;4878168;29;20057;-83
2024/01/24 03:50:51;;;;;;;1.10;1.10;;;;;;;-4.37;100.00;99159.91;4895325;29;20101;-79
2024/01/24 03:53:18;;;;;;;0.90;0.90;;;;;;;-4.37;100.00;99157.25;4895135;29;20053;-80
2024/01/24 03:55:45;;;;;;;0.93;0.93;;;;;;;-4.34;100.00;99152.69;4895245;29;20056;-79
2024/01/24 03:58:13;;;;;;;0.90;0.90;;;;;;;-4.36;100.00;99137.81;4895079;29;20404;-84
2024/01/24 04:00:40;;;;;;;1.00;1.00;;;;;;;-4.30;100.00;99154.03;4895177;29;20143;-80
2024/01/24 04:03:08;;;;;;;1.00;1.00;;;;;;;-4.32;100.00;99145.47;4894976;29;20137;-80
2024/01/24 04:05:36;;;;;;;1.10;1.10;;;;;;;-4.32;100.00;99154.19;4878785;29;20056;-80
2024/01/24 04:08:03;;;;;;;0.95;0.95;;;;;;;-4.31;100.00;99157.66;4895085;29;20515;-84
2024/01/24 04:10:30;;;;;;;0.90;0.90;;;;;;;-4.34;100.00;99157.94;4895158;29;20116;-78
2024/01/24 04:12:58;;;;;;;0.90;0.90;;;;;;;-4.32;100.00;99134.94;4895071;29;20056;-81
2024/01/24 04:15:27;;;;;;;1.02;1.02;;;;;;;-4.27;100.00;99144.03;4895243;29;20143;-86
2024/01/24 04:17:55;;;;;;;0.98;0.98;;;;;;;-4.26;100.00;99153.59;4894975;29;20064;-81
2024/01/24 04:20:23;;;;;;;1.00;1.00;;;;;;;-4.27;100.00;99138.78;4895182;29;20068;-81
2024/01/24 04:22:50;;;;;;;0.73;0.73;;;;;;;-4.28;100.00;99134.50;4894622;29;20108;-81
2024/01/24 04:25:17;;;;;;;1.00;1.00;;;;;;;-4.24;100.00;99135.03;4877852;29;20056;-81
2024/01/24 04:27:45;;;;;;;0.90;0.90;;;;;;;-4.26;100.00;99143.06;4895159;29;20108;-82
2024/01/24 04:30:12;;;;;;;0.90;0.90;;;;;;;-4.25;100.00;99139.47;4897882;29;20061;-83
2024/01/24 04:32:40;;;;;;;1.10;1.10;;;;;;;-4.22;100.00;99136.53;4899090;29;20068;-82
2024/01/24 04:35:08;;;;;;;0.77;0.77;;;;;;;-4.23;100.00;99142.78;4898410;29;20125;-82
2024/01/24 04:37:36;;;;;;;0.88;0.88;;;;;;;-4.23;100.00;99137.53;4898370;29;20056;-81
2024/01/24 04:40:04;;;;;;;0.85;0.85;;;;;;;-4.22;100.00;99127.78;4898335;29;20053;-81
2024/01/24 04:42:32;;;;;;;1.10;1.10;;;;;;;-4.19;100.00;99127.50;4898324;29;20052;-81
2024/01/24 04:44:59;;;;;;;1.00;1.00;;;;;;;-4.20;100.00;99125.84;4866067;29;20065;-82
2024/01/24 04:47:29;;;;;;;0.85;0.85;;;;;;;-4.18;100.00;99131.78;4898315;29;20076;-83
2024/01/24 04:49:56;;;;;;;0.90;0.90;;;;;;;-4.20;100.00;99124.03;4898260;29;20159;-86
2024/01/24 04:52:24;;;;;;;0.93;0.93;;;;;;;-4.20;100.00;99121.41;4898215;29;20052;-81
2024/01/24 04:54:52;;;;;;;0.90;0.90;;;;;;;-4.19;100.00;99133.59;4898334;29;20243;-81
2024/01/24 04:57:20;;;;;;;1.17;1.17;;;;;;;-4.16;100.00;99127.19;4880754;29;20060;-81
2024/01/24 04:59:47;;;;;;;0.80;0.80;;;;;;;-4.13;100.00;99116.34;4897816;29;20072;-81
2024/01/24 05:02:22;;;;;;;0.90;0.90;;;;;;;-4.15;100.00;99115.69;4880938;29;20057;-81
2024/01/24 05:04:50;;;;;;;0.98;0.98;;;;;;;-4.11;100.00;99114.41;4897507;29;20056;-82
2024/01/24 05:07:17;;;;;;;0.90;0.90;;;;;;;-4.12;100.00;99115.41;4897833;29;20060;-85
2024/01/24 05:09:45;;;;;;;1.10;1.10;;;;;;;-4.11;100.00;99109.13;4881029;29;20500;-83
2024/01/24 05:12:12;;;;;;;0.77;0.77;;;;;;;-4.12;100.00;99111.94;4898174;29;20111;-82
2024/01/24 05:14:40;;;;;;;1.10;1.10;;;;;;;-4.11;100.00;99100.41;4897817;29;20063;-81
2024/01/24 05:17:07;;;;;;;0.93;0.93;;;;;;;-4.13;100.00;99092.63;4865333;29;20475;-82
2024/01/24 05:19:35;;;;;;;0.90;0.90;;;;;;;-4.10;100.00;99096.78;4897345;29;20060;-82
2024/01/24 05:22:03;;;;;;;1.00;1.00;;;;;;;-4.10;100.00;99097.63;4897695;29;20056;-83
2024/01/24 05:24:30;;;;;;;0.80;0.80;;;;;;;-4.08;100.00;99108.00;4897968;29;20049;-82
2024/01/24 05:26:57;;;;;;;1.00;1.00;;;;;;;-4.05;100.00;99108.56;4880415;29;20133;-82
2024/01/24 05:29:25;;;;;;;0.80;0.80;;;;;;;-4.07;100.00;99102.59;4880622;29;20068;-80
2024/01/24 05:31:52;;;;;;;0.82;0.82;;;;;;;-4.01;100.00;99099.34;4897597;29;20556;-81
2024/01/24 05:34:21;;;;;;;0.70;0.70;;;;;;;-3.99;100.00;99101.84;4887656;29;20059;-83
2024/01/24 05:36:48;;;;;;;1.00;1.00;;;;;;;-4.02;100.00;99087.16;4887760;29;20519;-81
2024/01/24 05:39:15;;;;;;;1.02;1.02;;;;;;;-3.99;100.00;99101.84;4535475;29;10000039;-85
2024/01/24 05:41:43;;;;;;;1.00;1.00;;;;;;;-4.00;100.00;99098.41;4883002;29;20222;-84
2024/01/24 05:44:11;;;;;;;1.00;1.00;;;;;;;-3.97;100.00;99110.44;4885888;29;20428;-81
2024/01/24 05:46:38;;;;;;;0.70;0.70;;;;;;;-3.99;100.00;99102.69;4883518;29;20049;-81
2024/01/24 05:49:06;;;;;;;1.00;1.00;;;;;;;-3.96;100.00;99093.63;4883016;29;20908;-81
2024/01/24 05:51:33;;;;;;;0.90;0.90;;;;;;;-3.92;100.00;99093.19;4885853;29;20048;-81
2024/01/24 05:54:00;;;;;;;1.02;1.02;;;;;;;-3.92;100.00;99089.72;4881952;29;20048;-81
2024/01/24 05:56:27;;;;;;;1.33;1.23;;;;;;;-3.93;100.00;99088.06;4884054;29;20483;-84
2024/01/24 05:58:55;;;;;;;1.00;1.00;;;;;;;-3.93;100.00;99086.25;4882949;29;20223;-84
2024/01/24 06:01:24;;;;;;;1.10;1.10;;;;;;;-3.92;100.00;99082.66;4885682;29;20049;-79
2024/01/24 06:03:53;;;;;;;0.82;0.82;;;;;;;-3.87;100.00;99084.00;4885395;29;20093;-76
2024/01/24 06:06:20;;;;;;;0.88;0.88;;;;;;;-3.88;100.00;99069.97;4888689;29;20100;-77
2024/01/24 06:08:48;;;;;;;1.25;1.17;;;;;;;-3.82;100.00;99072.03;4884870;29;20083;-78
2024/01/24 06:11:17;;;;;;;1.08;1.08;;;;;;;-3.83;100.00;99069.53;4890377;29;20159;-79
2024/01/24 06:13:45;;;;;;;0.90;0.90;;;;;;;-3.81;100.00;99067.59;4889058;29;20060;-79
2024/01/24 06:16:13;;;;;;;1.30;1.20;;;;;;;-3.78;100.00;99067.28;4884730;29;20123;-79
2024/01/24 06:18:41;;;;;;;1.00;1.00;;;;;;;-3.76;100.00;99052.13;4885376;29;20057;-81
2024/01/24 06:21:09;;;;;;;1.38;1.27;;;;;;;-3.72;100.00;99061.41;4880493;29;20124;-81
2024/01/24 06:23:37;;;;;;;1.10;1.10;;;;;;;-3.69;100.00;99065.56;4880710;29;20120;-83
2024/01/24 06:26:04;;;;;;;0.98;0.98;;;;;;;-3.71;100.00;99057.78;4885011;29;20148;-77
2024/01/24 06:28:33;;;;;;;1.02;1.02;;;;;;;-3.70;100.00;99038.31;4887153;29;20365;-78
2024/01/24 06:31:02;;;;;;;1.10;1.10;;;;;;;-3.71;100.00;99031.41;4884213;29;20459;-81
2024/01/24 06:33:30;;;;;;;1.10;1.10;;;;;;;-3.69;100.00;99039.19;4882010;29;20564;-83
2024/01/24 06:35:57;;;;;;;1.10;1.10;;;;;;;-3.70;100.00;99040.97;4881396;29;20065;-82
2024/01/24 06:38:25;;;;;;;0.90;0.90;;;;;;;-3.64;100.00;99040.38;4884178;29;20142;-79
2024/01/24 06:40:52;;;;;;;1.10;1.10;;;;;;;-3.65;100.00;99028.13;4883439;29;20057;-83
2024/01/24 06:43:20;;;;;;;0.95;0.95;;;;;;;-3.60;100.00;99039.06;4831816;29;20081;-83
2024/01/24 06:45:50;;;;;;;1.05;1.05;;;;;;;-3.61;100.00;99028.69;4883890;29;20063;-82
2024/01/24 06:48:18;;;;;;;0.90;0.90;;;;;;;-3.55;100.00;99035.97;4889485;29;20128;-88
2024/01/24 06:50:46;;;;;;;1.17;1.15;;;;;;;-3.54;100.00;99038.47;4890983;29;20052;-80
2024/01/24 06:53:14;;;;;;;0.98;0.98;;;;;;;-3.51;100.00;99048.72;4885844;29;20049;-82
2024/01/24 06:55:42;;;;;;;1.00;1.00;;;;;;;-3.51;100.00;99053.97;4868912;29;20056;-80
2024/01/24 06:58:09;;;;;;;1.02;1.02;;;;;;;-3.51;100.00;99040.78;4881591;29;20063;-88
2024/01/24 07:00:40;;;;;;;0.90;0.90;;;;;;;-3.43;100.00;99039.19;4887107;29;20060;-80
2024/01/24 07:03:07;;;;;;;1.08;1.08;;;;;;;-3.38;100.00;99026.38;4889175;29;20492;-81
2024/01/24 07:05:34;;;;;;;1.10;1.10;;;;;;;-3.41;100.00;99026.69;4886724;29;20053;-78
2024/01/24 07:08:02;;;;;;;1.10;1.10;;;;;;;-3.39;100.00;99019.41;4884913;29;20052;-77
2024/01/24 07:10:31;;;;;;;1.20;1.20;;;;;;;-3.41;100.00;99018.78;4868767;29;20517;-79
2024/01/24 07:12:58;;;;;;;0.90;0.90;;;;;;;-3.38;100.00;99010.53;4884272;29;20052;-82
2024/01/24 07:15:29;;;;;;;0.95;0.95;;;;;;;-3.39;100.00;99019.41;4882329;29;20057;-80
2024/01/24 07:17:56;;;;;;;1.00;1.00;;;;;;;-3.34;100.00;99015.34;4866625;29;20064;-78
2024/01/24 07:20:23;;;;;;;1.00;1.00;;;;;;;-3.37;100.00;99009.53;4887228;29;20583;-80
2024/01/24 07:22:51;;;;;;;0.90;0.90;;;;;;;-3.36;100.00;99008.56;4885141;29;20466;-81
2024/01/24 07:25:20;;;;;;;0.90;0.90;;;;;;;-3.29;100.00;99006.97;4881527;29;20065;-86
2024/01/24 07:27:48;;;;;;;1.10;1.10;;;;;;;-3.31;100.00;99007.13;4884496;29;20092;-88
2024/01/24 07:30:16;;;;;;;1.00;1.00;;;;;;;-3.29;100.00;99012.25;4881275;29;20151;-88
2024/01/24 07:32:44;;;;;;;1.10;1.10;;;;;;;-3.26;100.00;99004.03;4867917;29;20105;-88
2024/01/24 07:35:12;;;;;;;1.00;1.00;;;;;;;-3.29;100.00;99004.34;4861079;29;20413;-84
2024/01/24 07:37:39;;;;;;;1.00;1.00;;;;;;;-3.25;100.00;98991.66;4884309;29;20464;-83
2024/01/24 07:40:07;;;;;;;1.20;1.20;;;;;;;-3.19;100.00;99005.06;4890911;29;20104;-84
2024/01/24 07:42:36;;;;;;;1.00;1.00;;;;;;;-3.19;100.00;99002.41;4888228;29;20061;-79
2024/01/24 07:45:04;;;;;;;1.08;1.08;;;;;;;-3.14;100.00;99005.41;4879440;29;20075;-84
2024/01/24 07:47:32;;;;;;;0.93;0.93;;;;;;;-3.11;100.00;98991.06;4884266;29;20072;-85
2024/01/24 07:50:00;;;;;;;1.00;1.00;;;;;;;-3.12;100.00;98986.75;4883028;29;20144;-82
2024/01/24 07:52:29;;;;;;;1.13;1.10;;;;;;;-3.07;100.00;98987.94;4884191;29;20139;-82
2024/01/24 07:55:07;;;;;;;1.15;1.15;;;;;;;-3.06;100.00;98984.31;4881393;29;20048;-81
2024/01/24 07:57:37;;;;;;;1.00;1.00;;;;;;;-3.02;100.00;98974.25;4890861;29;20058;-81
2024/01/24 08:00:06;;;;;;;1.13;1.10;;;;;;;-2.97;100.00;98973.78;4891445;29;20064;-83
2024/01/24 08:02:34;;;;;;;0.80;0.80;;;;;;;-3.00;100.00;98972.28;4888365;29;20057;-89
2024/01/24 08:05:01;;;;;;;1.00;1.00;;;;;;;-2.99;100.00;98963.38;4867756;29;20138;-84
2024/01/24 08:07:33;;;;;;;0.90;0.90;;;;;;;-2.95;100.00;98964.72;4870435;29;20067;-84
2024/01/24 08:10:01;;;;;;;0.80;0.80;;;;;;;-2.92;100.00;98963.56;4883780;29;20542;-88
2024/01/24 08:12:30;;;;;;;1.00;1.00;;;;;;;-2.95;100.00;98963.91;4886776;29;20052;-81
2024/01/24 08:14:57;;;;;;;1.17;1.15;;;;;;;-2.95;100.00;98958.63;4871940;29;20076;-84
2024/01/24 08:17:26;;;;;;;0.90;0.90;;;;;;;-2.95;100.00;98962.09;4865881;29;20052;-87
2024/01/24 08:19:53;;;;;;;0.90;0.90;;;;;;;-2.96;100.00;98951.66;4883122;29;20057;-84
2024/01/24 08:22:22;;;;;;;0.85;0.85;;;;;;;-2.89;100.00;98952.69;4880693;29;20424;-83
2024/01/24 08:24:49;;;;;;;0.90;0.90;;;;;;;-2.89;100.00;98944.78;4884316;29;20102;-88
2024/01/24 08:27:17;;;;;;;1.15;1.13;;;;;;;-2.84;100.00;98942.47;4885873;29;20104;-86
2024/01/24 08:29:45;;;;;;;1.10;1.10;;;;;;;-2.81;100.00;98943.97;4885930;29;20148;-85
2024/01/24 08:32:13;;;;;;;1.00;1.00;;;;;;;-2.81;100.00;98934.25;4883390;29;20049;-85
2024/01/24 08:34:43;;;;;;;1.05;1.05;;;;;;;-2.83;100.00;98936.22;4864721;29;20155;-83
2024/01/24 08:46:08;;;;;;;1.10;1.10;;;;;;;-2.76;100.00;98913.47;4863281;29;20433;-84
2024/01/24 08:49:17;;;;;;;1.10;1.10;;;;;;;-2.75;100.00;98914.28;4869237;29;20052;-84
2024/01/24 08:51:46;;;;;;;0.98;0.98;;;;;;;-2.72;100.00;98900.75;4883084;29;20056;-84
2024/01/24 08:54:17;;;;;;;0.90;0.90;;;;;;;-2.69;100.00;98901.22;4880726;29;20045;-84
2024/01/24 08:56:45;;;;;;;1.10;1.10;;;;;;;-2.65;100.00;98889.38;4534167;29;10000146;-83
2024/01/24 08:59:15;;;;;;;1.05;1.05;;;;;;;-2.60;100.00;98904.75;4883150;29;20676;-82
2024/01/24 09:01:43;;;;;;;1.00;1.00;;;;;;;-2.60;100.00;98890.72;4868661;29;20051;-83
2024/01/24 09:04:12;;;;;;;1.20;1.15;;;;;;;-2.57;100.00;98885.09;4885228;29;20057;-83
2024/01/24 09:06:40;;;;;;;1.02;1.02;;;;;;;-2.54;100.00;98893.50;4867732;29;20075;-85
2024/01/24 09:09:07;;;;;;;1.10;1.10;;;;;;;-2.54;100.00;98903.25;4885915;29;20055;-80
2024/01/24 09:11:34;;;;;;;1.02;1.02;;;;;;;-2.48;100.00;98886.72;4882581;29;20055;-82
2024/01/24 09:14:15;;;;;;;0.95;0.95;;;;;;;-2.48;100.00;98886.72;4881371;29;20048;-89
2024/01/24 09:16:42;;;;;;;1.00;1.00;;;;;;;-2.48;100.00;98869.09;4888842;29;20436;-84
2024/01/24 09:19:14;;;;;;;0.98;0.98;;;;;;;-2.41;100.00;98862.13;4870575;29;20056;-86
2024/01/24 09:21:41;;;;;;;1.13;1.13;;;;;;;-2.34;100.00;98854.38;4869661;29;20124;-84
2024/01/24 09:24:09;;;;;;;1.33;1.23;;;;;;;-2.29;100.00;98857.34;4890900;29;20064;-83
2024/01/24 09:26:37;;;;;;;1.10;1.10;;;;;;;-2.25;100.00;98837.53;4843168;29;20064;-85
2024/01/24 09:29:05;;;;;;;0.90;0.90;;;;;;;-2.19;100.00;98834.19;4872895;29;20053;-84
2024/01/24 09:31:32;;;;;;;1.25;1.17;;;;;;;-2.07;100.00;98836.53;4842130;29;20534;-87
2024/01/24 09:33:59;;;;;;;1.10;1.10;;;;;;;-2.04;100.00;98841.47;4871024;29;20158;-89
2024/01/24 09:36:27;;;;;;;1.13;1.13;;;;;;;-2.00;100.00;98825.09;4847903;29;20078;-87
2024/01/24 09:38:55;;;;;;;1.10;1.10;;;;;;;-1.95;100.00;98840.44;4891220;29;20045;-84
2024/01/24 09:41:24;;;;;;;1.10;1.10;;;;;;;-1.89;100.00;98818.63;4892381;29;20147;-85
2024/01/24 09:43:56;;;;;;;1.10;1.10;;;;;;;-1.94;100.00;98809.56;4858368;29;20049;-87
2024/01/24 09:50:15;;;;;;;1.10;1.10;;;;;;;-1.84;100.00;98802.25;4887378;29;20109;-85
2024/01/24 09:53:11;;;;;;;1.02;1.02;;;;;;;-1.83;100.00;98790.66;4896563;29;20087;-83
2024/01/24 09:55:41;;;;;;;1.20;1.20;;;;;;;-1.85;100.00;98792.63;4853059;29;20054;-87
2024/01/24 09:58:17;;;;;;;1.08;1.08;;;;;;;-1.78;100.00;98788.31;4851233;29;20067;-87
2024/01/24 10:00:47;;;;;;;1.00;1.00;;;;;;;-1.73;100.00;98785.16;4862677;29;20075;-88
2024/01/24 10:03:32;;;;;;;1.00;1.00;;;;;;;-1.62;99.99;98792.72;4836274;29;20059;-87
2024/01/24 10:06:06;;;;;;;1.00;1.00;;;;;;;-1.63;99.12;98770.72;4852369;29;20131;-84
2024/01/24 10:08:34;;;;;;;1.08;1.08;;;;;;;-1.59;98.88;98771.22;4849307;29;20076;-83
2024/01/24 10:11:01;;;;;;;1.10;1.10;;;;;;;-1.58;98.76;98770.22;4866195;29;20049;-85
2024/01/24 10:13:30;;;;;;;1.00;1.00;;;;;;;-1.62;98.94;98760.97;4849111;29;20488;-92
2024/01/24 10:15:59;;;;;;;1.05;1.05;;;;;;;-1.59;99.14;98752.72;4860652;29;20512;-90
2024/01/24 10:18:27;;;;;;;1.00;1.00;;;;;;;-1.62;99.12;98748.59;4864684;29;20065;-87
2024/01/24 10:20:55;;;;;;;1.00;1.00;;;;;;;-1.65;99.24;98745.44;4861676;29;20084;-90
2024/01/24 10:23:22;;;;;;;1.02;1.02;;;;;;;-1.63;99.57;98754.03;4852517;29;20049;-84
2024/01/24 10:25:50;;;;;;;0.98;0.98;;;;;;;-1.66;99.42;98741.16;4860272;29;20110;-83
2024/01/24 10:28:17;;;;;;;1.10;1.10;;;;;;;-1.63;99.82;98754.03;4860841;29;20046;-91
2024/01/24 10:30:46;;;;;;;1.20;1.17;;;;;;;-1.61;99.75;98737.00;4874348;29;20550;-90
2024/01/24 10:33:15;;;;;;;1.00;1.00;;;;;;;-1.64;99.74;98740.00;4848501;29;20057;-83
2024/01/24 10:35:46;;;;;;;1.10;1.10;;;;;;;-1.66;99.82;98749.91;4859409;29;20077;-85
2024/01/24 10:38:16;;;;;;;1.00;1.00;;;;;;;-1.69;100.00;98738.88;4873347;29;20152;-89
2024/01/24 10:40:43;;;;;;;1.10;1.10;;;;;;;-1.66;100.00;98734.03;4863444;29;20057;-88
2024/01/24 10:43:14;;;;;;;1.00;1.00;;;;;;;-1.68;100.00;98751.09;4858637;29;20060;-88
2024/01/24 10:45:44;;;;;;;1.10;1.10;;;;;;;-1.70;100.00;98734.56;4862488;29;20057;-89
2024/01/24 10:48:12;;;;;;;1.00;1.00;;;;;;;-1.69;100.00;98736.22;4875965;29;20060;-90
2024/01/24 10:50:40;;;;;;;0.85;0.85;;;;;;;-1.71;100.00;98730.28;4849429;29;20065;-87
2024/01/24 10:53:12;;;;;;;0.95;0.95;;;;;;;-1.82;100.00;98728.84;4863958;29;20076;-90
2024/01/24 10:55:40;;;;;;;0.95;0.95;;;;;;;-1.76;100.00;98736.88;4860373;29;20495;-91
2024/01/24 10:58:12;;;;;;;0.93;0.93;;;;;;;-1.75;100.00;98724.47;4866770;29;20106;-88
2024/01/24 11:00:39;;;;;;;1.10;1.10;;;;;;;-1.79;100.00;98724.00;4859461;29;20168;-89
2024/01/24 11:03:38;;;;;;;1.00;1.00;;;;;;;-1.75;100.00;98716.53;4841401;29;20053;-87
2024/01/24 11:06:12;;;;;;;1.02;1.02;;;;;;;-1.75;100.00;98708.59;4847121;29;20061;-87
2024/01/24 11:09:35;;;;;;;1.30;1.20;;;;;;;-1.77;100.00;98710.63;4849401;29;20348;-81
2024/01/24 11:15:32;;;;;;;1.30;1.20;;;;;;;-1.84;100.00;98705.19;4859270;29;20060;-90
2024/01/24 11:18:25;;;;;;;1.08;1.08;;;;;;;-1.81;100.00;98694.25;4857123;29;20437;-87
2024/01/24 11:20:55;;;;;;;1.15;1.15;;;;;;;-1.81;100.00;98691.59;4867728;29;20174;-90
2024/01/24 11:23:35;;;;;;;0.93;0.93;;;;;;;-1.80;100.00;98695.91;4864232;29;20084;-90
2024/01/24 11:26:03;;;;;;;1.13;1.10;;;;;;;-1.87;100.00;98684.38;4860968;29;20045;-85
2024/01/24 11:28:32;;;;;;;1.00;1.00;;;;;;;-1.84;100.00;98681.38;4851225;29;20045;-85
2024/01/24 11:34:28;;;;;;;0.93;0.93;;;;;;;-1.82;100.00;98670.63;4850760;29;20173;-90
2024/01/24 11:37:38;;;;;;;1.08;1.08;;;;;;;-1.79;100.00;98665.81;4840539;29;20073;-85
2024/01/24 11:48:47;;;;;;;1.10;1.10;;;;;;;-1.87;100.00;98673.78;4856691;29;20060;-88
2024/01/24 11:51:16;;;;;;;1.00;1.00;;;;;;;-1.87;100.00;98679.09;4866061;29;20053;-89
2024/01/24 11:54:15;;;;;;;1.25;1.17;;;;;;;-1.83;100.00;98682.19;4864949;29;20087;-85
2024/01/24 12:26:05;;;;;;;1.00;1.00;;;;;;;-1.91;100.00;98664.53;4844622;29;20049;-90
2024/01/24 12:29:33;;;;;;;1.10;1.10;;;;;;;-1.90;100.00;98660.06;4856054;29;20136;-89
2024/01/24 12:32:02;;;;;;;1.00;1.00;;;;;;;-1.91;100.00;98651.31;4860216;29;20473;-88